Sunday, December 16, 2018, 10:10 AM EST
Back to Local

KMFV, Melfa / Accomack Airport

Location: Melfa, VA, United States Lat: 37.65
Local Time: 10:10 AM EST (15:10 GMT) Lon: -75.767
Time Zone: US/Eastern Elev: 49 ft

Show me the last for .
Show Decoded

2018-12-16 09:55 METAR KMFV 161455Z AUTO 24009G16KT 10SM OVC007 10/09 A2985 RMK AO2 T00980086 =
2018-12-16 09:35 METAR KMFV 161435Z AUTO 23010G14KT 10SM OVC007 10/09 A2985 RMK AO2 T00960087 =
2018-12-16 09:15 METAR KMFV 161415Z AUTO 23010KT 10SM OVC007 10/09 A2985 RMK AO2 T00960089 =
2018-12-16 08:55 METAR KMFV 161355Z AUTO 23006KT 10SM OVC007 10/09 A2986 RMK AO2 T00970090 =
2018-12-16 08:35 METAR KMFV 161335Z AUTO 23007KT 10SM BKN007 BKN011 10/09 A2986 RMK AO2 T00990093
                 =
2018-12-16 08:15 METAR KMFV 161315Z AUTO 23008KT 10SM SCT007 10/10 A2985 RMK AO2 T01000095 =
2018-12-16 07:55 METAR KMFV 161255Z AUTO 23004KT 10SM BKN007 10/09 A2984 RMK AO2 T00980093 =
2018-12-16 07:35 METAR KMFV 161235Z AUTO 24007KT 10SM OVC007 10/10 A2985 RMK AO2 T01000095 =
2018-12-16 07:15 METAR KMFV 161215Z AUTO 24008KT 10SM OVC005 10/10 A2985 RMK AO2 T01010098 =
2018-12-16 06:55 METAR KMFV 161155Z AUTO 25008KT 10SM OVC003 11/10 A2985 RMK AO2 6//// 7////
                 T01050102 10131 20105 =
2018-12-16 06:35 METAR KMFV 161135Z AUTO 24009KT 5SM BR OVC003 11/10 A2985 RMK AO2 T01050102 =
2018-12-16 06:15 METAR KMFV 161115Z AUTO 24010KT 2 1/2SM BR OVC003 11/10 A2985 RMK AO2 T01050103
                 =
2018-12-16 05:55 METAR KMFV 161055Z AUTO 25010G14KT 5SM BR OVC003 11/10 A2986 RMK AO2 T01050103 =
2018-12-16 05:35 METAR KMFV 161035Z AUTO 24009G14KT 3SM BR OVC003 11/10 A2986 RMK AO2 T01050103 =
2018-12-16 05:15 METAR KMFV 161015Z AUTO 24007KT 2 1/2SM BR OVC003 11/10 A2986 RMK AO2 T01050103
                 =
2018-12-16 04:55 METAR KMFV 160955Z AUTO 24008KT 7SM OVC003 11/11 A2986 RMK AO2 T01060105 =
2018-12-16 04:35 METAR KMFV 160935Z AUTO 24007KT 4SM BR OVC003 11/11 A2985 RMK AO2 T01060105 =
2018-12-16 04:15 METAR KMFV 160915Z AUTO 24006KT 5SM BR OVC003 11/11 A2986 RMK AO2 T01070106 =
2018-12-16 03:55 METAR KMFV 160855Z AUTO 25006KT 7SM OVC003 11/11 A2986 RMK AO2 6//// T01100108 =
2018-12-16 03:35 METAR KMFV 160835Z AUTO 24007G14KT 5SM BR OVC003 11/11 A2987 RMK AO2 T01100110 =
2018-12-16 03:15 METAR KMFV 160815Z AUTO 24008KT 4SM BR OVC003 11/11 A2987 RMK AO2 T01140112 =
2018-12-16 02:55 METAR KMFV 160755Z AUTO 24007KT 200V260 7SM OVC003 12/12 A2987 RMK AO2 T01170116
                 =
2018-12-16 02:35 METAR KMFV 160735Z AUTO 24011G14KT 3SM BR OVC003 12/12 A2987 RMK AO2 T01200118 =
2018-12-16 02:15 METAR KMFV 160715Z AUTO 25009KT 1 3/4SM BR OVC003 12/12 A2986 RMK AO2 T01230122
                 =
2018-12-16 01:55 METAR KMFV 160655Z AUTO 26009KT 4SM BR OVC003 13/13 A2985 RMK AO2 T01270126 =
2018-12-16 01:35 METAR KMFV 160635Z AUTO 25006G14KT 1 1/2SM BR OVC003 13/13 A2985 RMK AO2
                 T01310130 =
2018-12-16 01:15 METAR KMFV 160615Z AUTO 24006KT 1SM BR OVC003 13/13 A2984 RMK AO2 T01300129 =
2018-12-16 00:55 METAR KMFV 160555Z AUTO 23007KT 1SM BR OVC003 13/13 A2984 RMK AO2 60037
                 T01280127 10133 20122 =
2018-12-16 00:35 METAR KMFV 160535Z AUTO 20004KT 1 1/4SM BR OVC003 12/12 A2984 RMK AO2 T01240122
                 =
2018-12-16 00:15 METAR KMFV 160515Z AUTO 18004KT 1/2SM FG OVC003 13/12 A2984 RMK AO2 T01250123 =
2018-12-15 23:55 METAR KMFV 160455Z AUTO 17005KT 1/2SM FG OVC003 13/13 A2985 RMK AO2 P0001
                 T01260125 401560122 =
2018-12-15 23:35 METAR KMFV 160435Z AUTO 14005KT 1 1/2SM BR OVC003 13/13 A2985 RMK AO2 P0001
                 T01260125 =
2018-12-15 23:15 METAR KMFV 160415Z AUTO 13006KT 4SM -DZ OVC003 13/13 A2985 RMK AO2 P0001
                 T01270125 =
2018-12-15 22:55 METAR KMFV 160355Z AUTO 14005KT 2SM -RA OVC003 13/13 A2987 RMK AO2 P0025
                 T01270125 =
2018-12-15 22:35 METAR KMFV 160335Z AUTO 11008KT 1 1/2SM +RA BKN004 OVC007 13/13 A2986 RMK AO2
                 P0022 T01300129 =
2018-12-15 22:15 METAR KMFV 160315Z AUTO 11006KT 1 3/4SM DZ OVC004 13/13 A2987 RMK AO2 P0001
                 T01300127 =
2018-12-15 21:55 METAR KMFV 160255Z AUTO 11006KT 2 1/2SM DZ OVC004 13/12 A2988 RMK AO2 P0003
                 60011 T01250124 =
2018-12-15 21:35 METAR KMFV 160235Z AUTO 10006KT 2SM DZ OVC004 12/12 A2988 RMK AO2 P0002
                 T01230122 =
2018-12-15 21:15 METAR KMFV 160215Z AUTO 11004KT 2SM +DZ OVC004 12/12 A2989 RMK AO2 P0001
                 T01230121 =
2018-12-15 20:55 METAR KMFV 160155Z AUTO 10006KT 1 3/4SM +DZ OVC004 12/12 A2989 RMK AO2 P0005
                 T01220120 =
2018-12-15 20:35 METAR KMFV 160135Z AUTO 10008G16KT 1 3/4SM DZ OVC004 13/13 A2990 RMK AO2 P0004
                 T01260125 =
2018-12-15 20:15 METAR KMFV 160115Z AUTO 11010G18KT 2SM RA OVC004 13/13 A2991 RMK AO2 P0003
                 T01310129 =
2018-12-15 19:55 METAR KMFV 160055Z AUTO 09009G15KT 2 1/2SM RA OVC004 13/13 A2991 RMK AO2 P0002
                 T01330131 =
2018-12-15 19:35 METAR KMFV 160035Z AUTO 08008G17KT 060V120 2SM RA OVC004 13/13 A2990 RMK AO2
                 P0001 T01310130 =
2018-12-15 19:15 METAR KMFV 160015Z AUTO 09009G18KT 070V130 3SM DZ OVC004 13/13 A2992 RMK AO2
                 P0001 T01260125 =
2018-12-15 18:55 METAR KMFV 152355Z AUTO 08009G20KT 2 1/2SM -RA OVC004 13/12 A2993 RMK AO2 P0001
                 60002 T01250122 10156 20125 =
2018-12-15 18:35 METAR KMFV 152335Z AUTO 08014G20KT 1 3/4SM -RA OVC004 13/12 A2993 RMK AO2 LTG
                 DSNT S T01250123 =
2018-12-15 18:15 METAR KMFV 152315Z AUTO 08015G22KT 1 1/2SM RA OVC004 13/13 A2992 RMK AO2
                 T01290126 =
2018-12-15 17:55 METAR KMFV 152255Z AUTO 08014G20KT 2SM BR OVC004 13/13 A2992 RMK AO2 T01300127 =
2018-12-15 17:35 METAR KMFV 152235Z AUTO 08015G19KT 1 3/4SM BR OVC004 13/13 A2991 RMK AO2
                 T01300127 =
2018-12-15 17:15 METAR KMFV 152215Z AUTO 07013G20KT 1 3/4SM -DZ OVC004 13/13 A2990 RMK AO2
                 T01270125 =
2018-12-15 16:55 METAR KMFV 152155Z AUTO 07011G15KT 3SM RA OVC004 13/13 A2991 RMK AO2 P0001
                 T01270125 =
2018-12-15 16:35 METAR KMFV 152135Z AUTO 08011KT 1 3/4SM DZ OVC002 13/13 A2992 RMK AO2 P0001
                 T01300127 =
2018-12-15 16:15 METAR KMFV 152115Z AUTO 07012KT 1SM +DZ OVC002 13/13 A2991 RMK AO2 T01320131 =
2018-12-15 15:55 METAR KMFV 152055Z AUTO 08009KT 1 1/2SM -DZ OVC002 13/13 A2992 RMK AO2 T01320131
                 =
2018-12-15 15:35 METAR KMFV 152035Z AUTO 08010KT 1 1/4SM DZ OVC002 13/13 A2991 RMK AO2 T01330131
                 =
2018-12-15 15:15 METAR KMFV 152015Z AUTO 08009KT 1 1/2SM -DZ OVC002 14/13 A2991 RMK AO2 T01350133
                 =
2018-12-15 14:55 METAR KMFV 151955Z AUTO 08011G14KT 1 3/4SM RA OVC002 14/14 A2991 RMK AO2
                 T01360135 =
2018-12-15 14:35 METAR KMFV 151935Z AUTO 08007KT 1 1/4SM RA OVC002 14/14 A2991 RMK AO2 T01370135
                 =
2018-12-15 14:15 METAR KMFV 151915Z AUTO 08008KT 1 1/2SM BR OVC002 14/14 A2991 RMK AO2 T01370135
                 =
2018-12-15 13:55 METAR KMFV 151855Z AUTO 08010KT 3/4SM BR OVC004 14/14 A2991 RMK AO2 T01400138 =
2018-12-15 13:35 METAR KMFV 151835Z AUTO 09006KT 10SM BKN004 OVC011 16/15 A2991 RMK AO2 T01550153
                 =
2018-12-15 13:15 METAR KMFV 151815Z AUTO 00000KT 4SM BR BKN004 BKN007 OVC011 16/15 A2991 RMK AO2
                 T01550153 =
2018-12-15 12:55 METAR KMFV 151755Z AUTO 06007KT 2 1/2SM DZ BKN004 BKN010 OVC013 15/15 A2991 RMK
                 AO2 P0007 60015 T01500148 10150 20130 =
2018-12-15 12:35 METAR KMFV 151735Z AUTO 08003KT 2 1/2SM +DZ SCT005 BKN010 OVC013 14/14 A2994 RMK
                 AO2 LTG DSNT N P0005 T01430142 =
2018-12-15 12:15 METAR KMFV 151715Z AUTO 08003KT 3SM +DZ SCT005 BKN009 OVC021 14/14 A2994 RMK AO2
                 P0001 T01400138 =
2018-12-15 11:55 METAR KMFV 151655Z AUTO 08004KT 3SM DZ BKN003 BKN010 OVC021 14/14 A2995 RMK AO2
                 P0004 T01360135 =
2018-12-15 11:35 METAR KMFV 151635Z AUTO 00000KT 2 1/2SM RA OVC003 14/13 A2996 RMK AO2 P0002
                 T01350133 =
2018-12-15 11:15 METAR KMFV 151615Z AUTO 07005KT 3/4SM -DZ OVC003 13/13 A2997 RMK AO2 T01330132 =
2018-12-15 10:55 METAR KMFV 151555Z AUTO 07005KT 1 1/2SM RA OVC003 14/14 A2998 RMK AO2 T01370135
                 =
2018-12-15 10:35 METAR KMFV 151535Z AUTO 09003KT 2 1/2SM RA OVC003 14/14 A2998 RMK AO2 T01380136
                 =
2018-12-15 10:15 METAR KMFV 151515Z AUTO 08004KT 10SM OVC003 14/13 A2997 RMK AO2 T01350134 =

Support USWX by starting your Amazon purchase here.